Julian, Pennsylvania
Current Conditions -  °F | °C
As of 10:55 PM on Saturday 20 Dec 2014 (Local Time) from KUNV Reporting Station
Overcast Overcast  
Wind Chill: 28°   Ceiling: 2300
Heat Index: 28°   Visibility: 10mi
Dew Point: 21°   Wind: 0mph
Humidity: 76%   Direction: NA
Pressure: 30.24"   Gusts: NA
Location:  40.86°N, 77.94°W
Report Text: KUNV 210355Z AUTO 00000KT 10SM OVC023 M02/M06 A3024 RMK AO2 T10251062 410161038
Loading
Personal Weather Stations






























Interactive Weather Map New forecast layout! Learn more

10-Day Weather Forecast

Advertisements
Track Severe Weather on mobile